createdAt,value
2018-03-03T00:00:10.458Z,48.00
2018-03-03T00:02:36.748Z,53.55
2018-03-03T00:05:02.642Z,56.78
2018-03-03T00:07:28.514Z,50.07
2018-03-03T00:09:54.422Z,45.90
2018-03-03T00:12:20.370Z,54.87
2018-03-03T00:14:46.230Z,47.73
2018-03-03T00:17:12.154Z,53.60
2018-03-03T00:19:38.036Z,58.47
2018-03-03T00:22:03.917Z,56.00
2018-03-03T00:24:30.048Z,55.17
2018-03-03T00:26:56.030Z,60.90
2018-03-03T00:29:21.888Z,51.95
2018-03-03T00:31:47.801Z,53.43
2018-03-03T00:34:13.662Z,51.23
2018-03-03T00:36:39.637Z,52.07
2018-03-03T00:39:05.540Z,55.30
2018-03-03T00:41:31.407Z,52.47
2018-03-03T00:43:57.278Z,52.53
2018-03-03T00:46:23.191Z,47.63
2018-03-03T00:48:49.162Z,50.37
2018-03-03T00:51:15.050Z,44.80
2018-03-03T00:53:40.946Z,51.33
2018-03-03T00:56:06.817Z,51.73
2018-03-03T00:58:32.668Z,46.77
2018-03-03T01:00:58.686Z,50.70
2018-03-03T01:03:24.566Z,52.92
2018-03-03T01:05:50.425Z,48.80
2018-03-03T01:08:16.630Z,49.57
2018-03-03T01:10:42.519Z,48.58
2018-03-03T01:13:08.470Z,51.27
2018-03-03T01:15:34.387Z,59.10
2018-03-03T01:18:00.260Z,54.17
2018-03-03T01:20:26.135Z,47.90
2018-03-03T01:22:52.043Z,52.23
2018-03-03T01:25:17.998Z,49.47
2018-03-03T01:27:43.873Z,47.47
2018-03-03T01:30:09.779Z,48.03
2018-03-03T01:32:35.646Z,44.43
2018-03-03T01:35:02.447Z,53.87
2018-03-03T01:37:28.849Z,49.30
2018-03-03T01:39:54.721Z,48.25
2018-03-03T01:42:20.579Z,54.43
2018-03-03T01:44:46.502Z,46.17
2018-03-03T01:47:12.366Z,43.97
2018-03-03T01:49:38.318Z,47.13
2018-03-03T01:52:04.234Z,43.97
2018-03-03T01:54:30.094Z,49.20
2018-03-03T01:56:55.956Z,48.30
2018-03-03T01:59:21.856Z,45.20
2018-03-03T02:01:47.810Z,53.07
2018-03-03T02:04:13.782Z,41.30
2018-03-03T02:06:39.673Z,51.27
2018-03-03T02:09:05.553Z,48.77
2018-03-03T02:11:31.425Z,51.03
2018-03-03T02:13:57.445Z,50.83
2018-03-03T02:16:23.318Z,46.55
2018-03-03T02:18:49.192Z,43.37
2018-03-03T02:21:15.333Z,50.23
2018-03-03T02:23:41.188Z,42.10
2018-03-03T02:26:07.129Z,50.00
2018-03-03T02:28:33.057Z,48.97
2018-03-03T02:30:58.916Z,53.00
2018-03-03T02:33:24.790Z,46.10
2018-03-03T02:35:50.681Z,46.97
2018-03-03T02:38:16.753Z,51.83
2018-03-03T02:40:42.634Z,47.97
2018-03-03T02:43:08.939Z,54.07
2018-03-03T02:45:34.816Z,50.25
2018-03-03T02:48:00.709Z,57.97
2018-03-03T02:50:26.729Z,43.53
2018-03-03T02:52:52.592Z,52.05
2018-03-03T02:55:18.479Z,52.63
2018-03-03T02:57:44.386Z,50.53
2018-03-03T03:00:10.263Z,43.90
2018-03-03T03:02:36.213Z,49.70
2018-03-03T03:05:02.163Z,53.43
2018-03-03T03:07:28.058Z,49.53
2018-03-03T03:09:53.919Z,49.40
2018-03-03T03:12:19.835Z,51.90
2018-03-03T03:14:45.787Z,48.83
2018-03-03T03:17:11.663Z,53.47
2018-03-03T03:19:37.566Z,51.60
2018-03-03T03:22:03.423Z,55.60
2018-03-03T03:24:29.297Z,47.40
2018-03-03T03:26:55.322Z,56.47
2018-03-03T03:29:21.189Z,54.47
2018-03-03T03:31:47.055Z,47.97
2018-03-03T03:34:12.983Z,53.80
2018-03-03T03:36:38.855Z,48.57
2018-03-03T03:39:04.815Z,56.63
2018-03-03T03:41:31.050Z,55.43
2018-03-03T03:43:56.920Z,52.92
2018-03-03T03:46:22.780Z,51.83
2018-03-03T03:48:48.697Z,55.53
2018-03-03T03:51:14.644Z,41.90
2018-03-03T03:53:40.510Z,47.23
2018-03-03T03:56:08.293Z,50.07
2018-03-03T03:58:34.197Z,51.20
2018-03-03T04:01:00.054Z,51.10
2018-03-03T04:03:26.302Z,49.07
2018-03-03T04:05:52.149Z,54.20
2018-03-03T04:08:18.014Z,52.17
2018-03-03T04:10:44.588Z,51.50
2018-03-03T04:13:10.462Z,46.58
2018-03-03T04:15:36.409Z,57.53
2018-03-03T04:18:02.326Z,54.43
2018-03-03T04:20:28.205Z,59.13
2018-03-03T04:22:54.059Z,51.20
2018-03-03T04:25:20.014Z,51.27
2018-03-03T04:27:46.009Z,52.53
2018-03-03T04:30:11.934Z,49.83
2018-03-03T04:32:37.869Z,56.23
2018-03-03T04:35:03.798Z,45.33
2018-03-03T04:37:29.646Z,48.03
2018-03-03T04:39:55.654Z,60.47
2018-03-03T04:42:21.509Z,60.50
2018-03-03T04:44:47.372Z,51.67
2018-03-03T04:47:13.279Z,56.63
2018-03-03T04:49:39.178Z,51.60
2018-03-03T04:52:05.154Z,54.03
2018-03-03T04:54:31.076Z,57.70
2018-03-03T04:56:57.881Z,53.40
2018-03-03T04:59:36.736Z,49.60
2018-03-03T05:02:05.738Z,51.90
2018-03-03T05:07:39.650Z,54.13
2018-03-03T05:10:06.256Z,57.10
2018-03-03T05:12:34.118Z,55.60
2018-03-03T05:15:01.889Z,58.25
2018-03-03T05:20:42.351Z,60.45
2018-03-03T05:23:15.283Z,46.15
2018-03-03T05:25:47.282Z,54.53
2018-03-03T05:28:19.706Z,53.78
2018-03-03T05:30:51.742Z,43.47
2018-03-03T05:33:23.903Z,56.08
2018-03-03T05:35:55.984Z,61.15
2018-03-03T05:38:28.007Z,56.92
2018-03-03T05:44:11.082Z,49.78
2018-03-03T05:46:43.101Z,54.03
2018-03-03T05:49:15.075Z,51.03
2018-03-03T05:54:51.462Z,54.45
2018-03-03T05:57:23.495Z,63.45
2018-03-03T05:59:55.477Z,40.80
2018-03-03T06:02:34.966Z,58.42
2018-03-03T06:05:15.953Z,53.80
2018-03-03T06:07:48.924Z,61.90
2018-03-03T06:10:17.810Z,59.60
2018-03-03T06:12:43.662Z,53.15
2018-03-03T06:15:09.610Z,54.13
2018-03-03T06:17:35.692Z,62.37
2018-03-03T06:20:01.645Z,49.13
2018-03-03T06:22:27.550Z,50.37
2018-03-03T06:24:53.458Z,43.97
2018-03-03T06:27:20.055Z,57.50
2018-03-03T06:29:45.910Z,53.10
2018-03-03T06:32:11.886Z,60.63
2018-03-03T06:34:37.746Z,52.38
2018-03-03T06:37:03.626Z,57.83
2018-03-03T06:39:29.581Z,62.97
2018-03-03T06:41:55.446Z,51.93
2018-03-03T06:44:21.382Z,52.47
2018-03-03T06:46:47.286Z,56.77
2018-03-03T06:49:13.154Z,56.80
2018-03-03T06:51:39.055Z,52.73
2018-03-03T06:54:05.934Z,45.50
2018-03-03T06:56:31.897Z,52.30
2018-03-03T06:58:57.757Z,63.07
2018-03-03T07:01:23.664Z,56.13
2018-03-03T07:03:49.601Z,51.53
2018-03-03T07:06:15.479Z,61.53
2018-03-03T07:08:41.544Z,52.43
2018-03-03T07:11:07.414Z,60.83
2018-03-03T07:13:34.217Z,53.13
2018-03-03T07:16:00.280Z,49.15
2018-03-03T07:18:26.133Z,51.17
2018-03-03T07:20:54.471Z,54.70
2018-03-03T07:23:20.377Z,58.25
2018-03-03T07:25:47.972Z,58.33
2018-03-03T07:28:13.897Z,47.55
2018-03-03T07:30:39.847Z,47.70
2018-03-03T07:33:05.850Z,50.00
2018-03-03T07:35:31.788Z,48.33
2018-03-03T07:37:57.707Z,48.10
2018-03-03T07:40:23.637Z,55.17
2018-03-03T07:42:49.663Z,54.60
2018-03-03T07:45:15.969Z,65.07
2018-03-03T07:47:41.849Z,51.65
2018-03-03T07:50:07.726Z,46.37
2018-03-03T07:52:33.673Z,54.03
2018-03-03T07:54:59.524Z,51.10
2018-03-03T07:57:25.562Z,56.47
2018-03-03T07:59:51.455Z,47.75
2018-03-03T08:02:17.323Z,54.73
2018-03-03T08:04:43.263Z,61.30
2018-03-03T08:07:09.201Z,51.27
2018-03-03T08:09:35.173Z,55.20
2018-03-03T08:12:01.056Z,50.63
2018-03-03T08:14:26.981Z,52.93
2018-03-03T08:16:52.884Z,52.97
2018-03-03T08:19:18.766Z,51.70
2018-03-03T08:21:44.861Z,43.37
2018-03-03T08:24:10.726Z,48.15
2018-03-03T08:26:36.606Z,48.40
2018-03-03T08:29:02.568Z,45.80
2018-03-03T08:31:28.445Z,47.23
2018-03-03T08:33:54.456Z,47.67
2018-03-03T08:36:20.413Z,40.90
2018-03-03T08:38:46.308Z,48.13
2018-03-03T08:41:12.218Z,39.13
2018-03-03T08:43:38.137Z,34.80
2018-03-03T08:46:04.158Z,36.70
2018-03-03T08:48:30.040Z,45.85
2018-03-03T08:50:55.976Z,36.90
2018-03-03T08:53:21.934Z,36.60
2018-03-03T08:55:47.815Z,40.60
2018-03-03T08:58:13.830Z,40.80
2018-03-03T09:00:39.691Z,41.40
2018-03-03T09:03:07.611Z,38.17
2018-03-03T09:05:33.963Z,33.75
2018-03-03T09:07:59.890Z,38.78
2018-03-03T09:10:25.875Z,31.73
2018-03-03T09:12:52.175Z,34.38
2018-03-03T09:15:18.150Z,37.42
2018-03-03T09:17:44.101Z,37.83
2018-03-03T09:20:10.426Z,35.63
2018-03-03T09:22:36.480Z,37.38
2018-03-03T09:25:02.415Z,36.33
2018-03-03T09:27:28.387Z,29.90
2018-03-03T09:29:54.380Z,34.37
2018-03-03T09:32:20.258Z,25.80
2018-03-03T09:34:46.348Z,31.07
2018-03-03T09:37:13.230Z,31.77
2018-03-03T09:39:39.199Z,29.00
2018-03-03T09:42:05.199Z,33.80
2018-03-03T09:44:31.114Z,25.17
2018-03-03T09:46:57.082Z,32.13
2018-03-03T09:49:23.053Z,34.23
2018-03-03T09:51:48.975Z,32.53
2018-03-03T09:54:15.785Z,34.50
2018-03-03T09:56:41.968Z,35.35
2018-03-03T09:59:08.011Z,33.72
2018-03-03T10:01:33.995Z,34.10
2018-03-03T10:04:00.176Z,30.87
2018-03-03T10:06:27.601Z,30.80
2018-03-03T10:08:55.524Z,27.05
2018-03-03T10:11:21.549Z,31.40
2018-03-03T10:13:47.475Z,31.90
2018-03-03T10:16:13.386Z,34.63
2018-03-03T10:18:39.686Z,35.57
2018-03-03T10:21:05.626Z,37.17
2018-03-03T10:23:31.647Z,32.03
2018-03-03T10:25:57.564Z,34.97
2018-03-03T10:28:23.458Z,29.37
2018-03-03T10:30:49.340Z,31.23
2018-03-03T10:33:15.821Z,34.40
2018-03-03T10:35:41.762Z,32.57
2018-03-03T10:38:07.726Z,33.20
2018-03-03T10:40:33.789Z,31.60
2018-03-03T10:42:59.651Z,34.33
2018-03-03T10:45:25.522Z,36.83
2018-03-03T10:47:51.576Z,36.80
2018-03-03T10:50:17.486Z,39.40
2018-03-03T10:52:43.435Z,36.13
2018-03-03T10:55:09.337Z,34.17
2018-03-03T10:57:35.200Z,33.30
2018-03-03T11:00:01.147Z,29.60
2018-03-03T11:02:27.070Z,35.50
2018-03-03T11:04:52.939Z,31.27
2018-03-03T11:07:18.899Z,31.33
2018-03-03T11:09:44.972Z,31.00
2018-03-03T11:12:10.979Z,37.17
2018-03-03T11:14:36.832Z,30.63
2018-03-03T11:17:02.778Z,38.13
2018-03-03T11:19:28.674Z,31.60
2018-03-03T11:21:54.531Z,32.17
2018-03-03T11:24:20.496Z,28.87
2018-03-03T11:26:46.369Z,34.13
2018-03-03T11:29:12.250Z,27.03
2018-03-03T11:31:38.166Z,23.70
2018-03-03T11:34:04.057Z,24.67
2018-03-03T11:36:30.006Z,24.20
2018-03-03T11:38:55.901Z,25.87
2018-03-03T11:41:21.768Z,21.07
2018-03-03T11:43:47.611Z,22.63
2018-03-03T11:46:13.519Z,27.73
2018-03-03T11:48:39.487Z,25.70
2018-03-03T11:51:05.390Z,24.67
2018-03-03T11:53:31.299Z,22.40
2018-03-03T11:55:57.167Z,21.73
2018-03-03T11:58:23.027Z,23.03
2018-03-03T12:00:49.348Z,21.67
2018-03-03T12:03:15.209Z,22.93
2018-03-03T12:05:41.137Z,23.43
2018-03-03T12:08:07.045Z,21.73
2018-03-03T12:10:32.914Z,20.73
2018-03-03T12:12:58.883Z,30.70
2018-03-03T12:15:24.863Z,24.27
2018-03-03T12:17:50.739Z,26.60
2018-03-03T12:20:16.622Z,27.10
2018-03-03T12:22:42.934Z,28.50
2018-03-03T12:25:08.876Z,23.47
2018-03-03T12:27:34.738Z,23.03
2018-03-03T12:30:00.650Z,28.43
2018-03-03T12:32:26.526Z,26.43
2018-03-03T12:34:52.447Z,28.57
2018-03-03T12:37:18.426Z,24.37
2018-03-03T12:39:44.272Z,25.60
2018-03-03T12:42:10.126Z,26.23
2018-03-03T12:44:36.058Z,30.93
2018-03-03T12:47:01.974Z,25.03
2018-03-03T12:49:27.951Z,23.97
2018-03-03T12:51:54.261Z,30.30
2018-03-03T12:54:20.190Z,28.17
2018-03-03T12:56:46.106Z,27.33
2018-03-03T12:59:12.055Z,28.27
2018-03-03T13:01:38.058Z,22.03
2018-03-03T13:04:03.914Z,23.70
2018-03-03T13:06:29.822Z,24.23
2018-03-03T13:08:55.760Z,26.97
2018-03-03T13:11:21.637Z,26.23
2018-03-03T13:13:47.873Z,28.23
2018-03-03T13:16:13.742Z,29.80
2018-03-03T13:18:39.665Z,26.03
2018-03-03T13:21:05.671Z,31.20
2018-03-03T13:23:31.532Z,29.70
2018-03-03T13:25:58.075Z,27.87
2018-03-03T13:28:23.999Z,24.90
2018-03-03T13:30:49.881Z,26.77
2018-03-03T13:33:15.774Z,27.13
2018-03-03T13:35:41.776Z,27.60
2018-03-03T13:38:07.726Z,25.87
2018-03-03T13:40:33.646Z,24.87
2018-03-03T13:42:59.610Z,24.87
2018-03-03T13:45:25.511Z,24.93
2018-03-03T13:47:51.382Z,23.43
2018-03-03T13:50:17.398Z,22.43
2018-03-03T13:52:43.314Z,21.23
2018-03-03T13:55:09.215Z,23.10
2018-03-03T13:57:35.124Z,22.13
2018-03-03T14:00:01.057Z,24.67
2018-03-03T14:02:27.081Z,20.60
2018-03-03T14:04:53.047Z,19.77
2018-03-03T14:07:19.012Z,18.90
2018-03-03T14:09:44.947Z,24.70
2018-03-03T14:12:11.076Z,20.20
2018-03-03T14:14:37.045Z,22.20
2018-03-03T14:17:02.905Z,24.60
2018-03-03T14:19:28.832Z,24.23
2018-03-03T14:21:54.727Z,24.30
2018-03-03T14:24:20.603Z,25.50
2018-03-03T14:26:46.680Z,22.73
2018-03-03T14:29:12.550Z,22.50
2018-03-03T14:31:38.441Z,24.10
2018-03-03T14:34:04.363Z,22.37
2018-03-03T14:36:30.217Z,23.50
2018-03-03T14:38:56.290Z,23.60
2018-03-03T14:41:22.381Z,22.37
2018-03-03T14:43:48.474Z,25.07
2018-03-03T14:46:14.339Z,23.40
2018-03-03T14:48:40.264Z,25.97
2018-03-03T14:51:06.247Z,24.17
2018-03-03T14:53:32.137Z,27.23
2018-03-03T14:55:58.046Z,25.33
2018-03-03T14:58:23.946Z,24.00
2018-03-03T15:00:49.906Z,24.53
2018-03-03T15:03:16.003Z,25.07
2018-03-03T15:05:41.864Z,28.30
2018-03-03T15:08:07.744Z,24.33
2018-03-03T15:10:33.676Z,23.93
2018-03-03T15:12:59.571Z,24.03
2018-03-03T15:15:25.542Z,27.90
2018-03-03T15:17:51.462Z,28.17
2018-03-03T15:20:17.324Z,26.20
2018-03-03T15:22:43.187Z,25.00
2018-03-03T15:25:09.588Z,28.70
2018-03-03T15:27:35.967Z,26.83
2018-03-03T15:30:01.956Z,27.23
2018-03-03T15:32:27.955Z,27.60
2018-03-03T15:34:54.022Z,27.87
2018-03-03T15:37:20.026Z,33.40
2018-03-03T15:39:46.075Z,30.23
2018-03-03T15:42:11.951Z,28.37
2018-03-03T15:44:37.918Z,26.77
2018-03-03T15:47:03.914Z,28.30
2018-03-03T15:49:29.797Z,28.73
2018-03-03T15:51:55.736Z,26.80
2018-03-03T15:54:21.642Z,28.87
2018-03-03T15:56:47.525Z,28.50
2018-03-03T15:59:13.399Z,29.67
2018-03-03T16:01:39.365Z,28.93
2018-03-03T16:04:05.330Z,29.10
2018-03-03T16:06:31.226Z,27.63
2018-03-03T16:08:57.220Z,30.67
2018-03-03T16:11:23.210Z,29.73
2018-03-03T16:13:49.121Z,33.73
2018-03-03T16:16:15.205Z,30.70
2018-03-03T16:18:41.124Z,31.62
2018-03-03T16:21:07.010Z,28.23
2018-03-03T16:23:32.982Z,29.17
2018-03-03T16:25:58.892Z,29.50
2018-03-03T16:28:24.903Z,29.87
2018-03-03T16:30:50.889Z,33.30
2018-03-03T16:33:16.753Z,33.60
2018-03-03T16:35:42.844Z,31.97
2018-03-03T16:38:08.790Z,33.22
2018-03-03T16:40:34.746Z,35.50
2018-03-03T16:43:00.623Z,31.87
2018-03-03T16:45:26.564Z,30.17
2018-03-03T16:47:52.490Z,30.50
2018-03-03T16:50:18.443Z,35.10
2018-03-03T16:52:44.481Z,29.43
2018-03-03T16:55:10.383Z,34.35
2018-03-03T16:57:36.276Z,30.00
2018-03-03T17:00:02.270Z,34.07
2018-03-03T17:02:28.161Z,37.27
2018-03-03T17:04:54.149Z,33.13
2018-03-03T17:07:20.118Z,38.80
2018-03-03T17:09:45.984Z,32.27
2018-03-03T17:12:11.918Z,36.37
2018-03-03T17:14:37.958Z,37.43
2018-03-03T17:17:04.829Z,34.05
2018-03-03T17:19:30.733Z,36.00
2018-03-03T17:24:58.182Z,33.75
2018-03-03T17:27:24.069Z,31.75
2018-03-03T17:29:49.958Z,37.33
2018-03-03T17:32:15.954Z,37.40
2018-03-03T17:34:41.837Z,32.70
2018-03-03T17:37:07.719Z,42.37
2018-03-03T17:39:33.650Z,37.60
2018-03-03T17:41:59.572Z,42.43
2018-03-03T17:44:25.433Z,36.70
2018-03-03T17:46:51.345Z,36.33
2018-03-03T17:49:17.226Z,32.63
2018-03-03T17:51:43.113Z,37.43
2018-03-03T17:54:09.021Z,35.43
2018-03-03T17:56:34.989Z,34.43
2018-03-03T17:59:00.862Z,37.87
2018-03-03T18:01:26.785Z,35.43
2018-03-03T18:03:52.645Z,38.20
2018-03-03T18:06:18.527Z,43.07
2018-03-03T18:08:44.761Z,40.20
2018-03-03T18:11:10.636Z,41.83
2018-03-03T18:13:36.509Z,34.03
2018-03-03T18:16:02.517Z,37.23
2018-03-03T18:18:30.315Z,35.03
2018-03-03T18:20:56.192Z,36.78
2018-03-03T18:23:22.110Z,31.50
2018-03-03T18:25:48.105Z,30.80
2018-03-03T18:28:14.057Z,36.15
2018-03-03T18:30:39.982Z,33.77
2018-03-03T18:33:13.938Z,42.13
2018-03-03T18:35:40.414Z,34.10
2018-03-03T18:38:06.314Z,31.08
2018-03-03T18:40:32.214Z,31.40
2018-03-03T18:42:58.919Z,36.27
2018-03-03T18:45:24.892Z,38.53
2018-03-03T18:47:50.988Z,38.43
2018-03-03T18:50:16.896Z,42.15
2018-03-03T18:52:42.758Z,38.13
2018-03-03T18:55:08.636Z,34.83
2018-03-03T18:57:34.565Z,38.00
2018-03-03T19:00:00.437Z,37.53
2018-03-03T19:02:26.359Z,44.50
2018-03-03T19:04:52.278Z,43.73
2018-03-03T19:07:18.178Z,43.13
2018-03-03T19:09:44.096Z,40.43
2018-03-03T19:12:10.453Z,44.40
2018-03-03T19:14:36.348Z,37.60
2018-03-03T19:17:02.222Z,40.20
2018-03-03T19:19:28.138Z,45.87
2018-03-03T19:21:54.034Z,44.43
2018-03-03T19:24:19.940Z,39.00
2018-03-03T19:26:45.846Z,42.87
2018-03-03T19:29:11.709Z,37.60
2018-03-03T19:31:37.575Z,40.57
2018-03-03T19:34:03.486Z,39.10
2018-03-03T19:36:29.353Z,43.50
2018-03-03T19:38:55.204Z,38.73
2018-03-03T19:41:21.120Z,38.27
2018-03-03T19:43:46.982Z,43.63
2018-03-03T19:46:12.846Z,40.20
2018-03-03T19:48:38.753Z,40.87
2018-03-03T19:51:04.647Z,40.70
2018-03-03T19:53:30.497Z,38.67
2018-03-03T19:55:56.485Z,39.53
2018-03-03T19:58:22.352Z,38.83
2018-03-03T20:00:48.196Z,38.20
2018-03-03T20:03:14.200Z,41.70
2018-03-03T20:05:40.053Z,39.05
2018-03-03T20:08:05.992Z,38.97
2018-03-03T20:10:32.394Z,36.10
2018-03-03T20:12:58.278Z,39.90
2018-03-03T20:15:24.149Z,37.80
2018-03-03T20:17:50.069Z,43.23
2018-03-03T20:20:15.963Z,41.70
2018-03-03T20:22:41.827Z,40.83
2018-03-03T20:25:07.742Z,39.70
2018-03-03T20:27:33.588Z,47.60
2018-03-03T20:29:59.461Z,45.67
2018-03-03T20:32:25.531Z,42.93
2018-03-03T20:34:51.460Z,44.53
2018-03-03T20:37:17.329Z,41.37
2018-03-03T20:39:43.227Z,39.63
2018-03-03T20:42:09.121Z,42.37
2018-03-03T20:44:35.356Z,41.87
2018-03-03T20:47:01.426Z,44.00
2018-03-03T20:49:27.382Z,42.42
2018-03-03T20:51:53.251Z,42.60
2018-03-03T20:54:19.601Z,42.03
2018-03-03T20:56:45.544Z,44.97
2018-03-03T20:59:11.417Z,40.30
2018-03-03T21:01:37.329Z,42.67
2018-03-03T21:04:03.640Z,35.37
2018-03-03T21:06:29.558Z,37.92
2018-03-03T21:08:55.818Z,39.20
2018-03-03T21:11:22.588Z,40.55
2018-03-03T21:13:48.491Z,45.47
2018-03-03T21:16:14.630Z,45.23
2018-03-03T21:18:40.490Z,46.10
2018-03-03T21:21:06.369Z,42.20
2018-03-03T21:23:32.335Z,39.67
2018-03-03T21:25:58.255Z,42.92
2018-03-03T21:28:24.178Z,41.03
2018-03-03T21:30:50.091Z,51.10
2018-03-03T21:33:15.967Z,44.23
2018-03-03T21:35:41.865Z,44.23
2018-03-03T21:38:07.793Z,45.20
2018-03-03T21:40:33.714Z,47.13
2018-03-03T21:42:59.570Z,51.10
2018-03-03T21:45:25.525Z,42.77
2018-03-03T21:47:51.405Z,50.10
2018-03-03T21:50:17.333Z,45.23
2018-03-03T21:52:43.287Z,44.37
2018-03-03T21:55:09.214Z,44.17
2018-03-03T21:57:35.188Z,48.67
2018-03-03T22:00:01.138Z,48.03
2018-03-03T22:02:27.064Z,44.20
2018-03-03T22:04:53.199Z,48.43
2018-03-03T22:07:19.234Z,49.55
2018-03-03T22:09:45.141Z,43.05
2018-03-03T22:12:11.069Z,45.17
2018-03-03T22:14:37.014Z,45.73
2018-03-03T22:17:02.963Z,44.57
2018-03-03T22:19:28.849Z,40.53
2018-03-03T22:21:54.748Z,44.67
2018-03-03T22:24:20.615Z,45.33
2018-03-03T22:26:46.506Z,48.00
2018-03-03T22:29:12.405Z,49.73
2018-03-03T22:31:38.270Z,43.77
2018-03-03T22:34:04.150Z,42.43
2018-03-03T22:36:30.113Z,48.17
2018-03-03T22:38:56.005Z,50.53
2018-03-03T22:41:21.863Z,42.30
2018-03-03T22:43:47.787Z,41.53
2018-03-03T22:46:13.663Z,47.90
2018-03-03T22:48:39.539Z,37.97
2018-03-03T22:51:05.705Z,45.90
2018-03-03T22:53:31.584Z,46.58
2018-03-03T22:55:57.450Z,48.33
2018-03-03T22:58:23.356Z,44.57
2018-03-03T23:00:49.312Z,51.93
2018-03-03T23:03:15.264Z,49.23
2018-03-03T23:05:41.192Z,42.80
2018-03-03T23:08:07.088Z,47.17
2018-03-03T23:10:32.954Z,44.07
2018-03-03T23:12:58.919Z,45.63
2018-03-03T23:15:24.832Z,52.77
2018-03-03T23:17:50.710Z,49.93
2018-03-03T23:20:16.609Z,57.40
2018-03-03T23:22:43.034Z,50.67
2018-03-03T23:25:08.909Z,49.53
2018-03-03T23:27:34.829Z,49.10
2018-03-03T23:30:00.703Z,52.43
2018-03-03T23:32:26.583Z,47.27
2018-03-03T23:34:52.508Z,48.67
2018-03-03T23:37:18.380Z,49.33
2018-03-03T23:39:44.645Z,47.00
2018-03-03T23:42:10.583Z,45.58
2018-03-03T23:44:36.473Z,50.37
2018-03-03T23:47:02.357Z,51.67
2018-03-03T23:49:28.269Z,54.27
2018-03-03T23:51:54.185Z,55.20
2018-03-03T23:54:20.103Z,55.03
2018-03-03T23:56:45.998Z,48.83
2018-03-03T23:59:11.890Z,50.37
